Главная страница
METAR-TAF:

METAR-TAF

Аэропорты :

Кувейт, Кувейт

широта: 29-13N, долгота: 047-59E, высота над уровнем моря: 55 м

Текущие метеонаблюдения

Эта сводка был подготовлена 28 минут назад, в 12:00 UTC
Ветер 5 Узел от восточно-юго-восточный
Температура 17°C
Влажность 45%
Давление 1018 hPa
Видимость: 4000 м
(Слабый) мгла

METAR: OKBK 221200Z 11005KT 4000 -HZ NSC 17/05 Q1018 NOSIG

Время: 15:28 (12:28 UTC)

Прогноз

Эта сводка был подготовлена 1 час и 43 минут назад, в 10:45 UTC
Прогноз действительный с 22-го 12 UTC до 23-го 18 UTC
Ветер 3 Узел переменных направлений
Видимость: 6000 м
изменения
С 22-го 13 UTC до 22-го 15 UTC
Ветер 10 Узел от юго-юго-восточный

TAF: OKBK 221045Z 2212/2318 VRB03KT 6000 NSC BECMG 2213/2215 15010KT

Метеонаблюдения и прогнозы для более 4000 аэропортов (сводки METAR и TAF).

Имеющиеся станции представлены на карте желтыми и красными точками.

Чтобы увидеть название станции, наведите на нее мышь.

Затем щелкните, чтобы увидеть метеонаблюдения и метеопрогнозы.

Управление картой: чтобы увеличить масштаб, щелкните зеленые кнопки с черным крестиком; чтобы уменьшить масштаб, щелкните зеленую кнопку с тире; для просмотра соседних карт щелкайте зеленые стрелки.


METAR-TAF: